Time;durP1;ratioP1;P1;durP2;ratioP2;P2;SDS_P1;SDS_P2;PMS_P1;PMS_P2;Temp;Humidity;BMP_temperature;BMP_pressure;BME280_temperature;BME280_humidity;BME280_pressure;Samples;Min_cycle;Max_cycle;Signal;HPM_P1;HPM_P2
2021/01/30 00:00:34;;;;;;;5.55;4.53;;;;;;;8.41;47.59;98000.58;1706591;83;21195;-68
2021/01/30 00:03:03;;;;;;;7.47;4.75;;;;;;;8.40;47.58;98005.06;1693918;83;21219;-69
2021/01/30 00:05:31;;;;;;;6.85;5.28;;;;;;;8.40;47.61;98008.19;1697648;83;21163;-67
2021/01/30 00:08:00;;;;;;;5.90;4.72;;;;;;;8.39;47.58;98017.97;1709246;82;21230;-68
2021/01/30 00:10:28;;;;;;;6.10;4.72;;;;;;;8.40;47.57;98017.45;1710832;83;21372;-68
2021/01/30 00:12:56;;;;;;;7.15;4.80;;;;;;;8.38;47.58;98021.64;1713944;83;21210;-69
2021/01/30 00:15:25;;;;;;;7.37;5.20;;;;;;;8.38;47.58;98024.28;1714402;83;21606;-67
2021/01/30 00:17:54;;;;;;;6.47;5.05;;;;;;;8.38;47.59;98030.06;1707882;83;21169;-68
2021/01/30 00:20:25;;;;;;;6.42;4.80;;;;;;;8.38;47.55;98027.42;1718874;83;21169;-69
2021/01/30 00:22:55;;;;;;;5.80;4.40;;;;;;;8.37;47.55;98031.91;1721283;83;21245;-69
2021/01/30 00:25:26;;;;;;;6.62;4.62;;;;;;;8.37;47.54;98034.55;1707023;82;21201;-67
2021/01/30 00:27:54;;;;;;;7.28;5.33;;;;;;;8.36;47.52;98036.87;1714025;83;21171;-68
2021/01/30 00:30:24;;;;;;;6.22;4.83;;;;;;;8.35;47.56;98041.86;1703360;83;21189;-68
2021/01/30 00:32:53;;;;;;;6.03;4.83;;;;;;;8.35;47.53;98043.19;1690749;83;21477;-68
2021/01/30 00:35:22;;;;;;;6.65;4.80;;;;;;;8.36;47.51;98047.97;1699943;83;21593;-70
2021/01/30 00:37:49;;;;;;;7.47;5.15;;;;;;;8.35;47.51;98047.16;1700494;83;21452;-69
2021/01/30 00:40:18;;;;;;;7.00;5.20;;;;;;;8.35;47.49;98051.64;1693723;83;21167;-68
2021/01/30 00:42:46;;;;;;;6.25;5.25;;;;;;;8.34;47.50;98052.13;1743060;81;21190;-69
2021/01/30 00:45:15;;;;;;;6.87;4.90;;;;;;;8.34;47.51;98050.80;1746372;81;21147;-68
2021/01/30 00:47:43;;;;;;;6.33;4.97;;;;;;;8.32;47.47;98050.18;1750141;81;21263;-69
2021/01/30 00:50:12;;;;;;;7.85;5.37;;;;;;;8.32;47.48;98059.95;1750685;81;21147;-67
2021/01/30 00:52:42;;;;;;;5.72;4.55;;;;;;;8.31;47.46;98061.79;1740840;81;21151;-67
2021/01/30 00:55:20;;;;;;;6.40;4.60;;;;;;;8.31;47.47;98061.79;1742420;81;21083;-67
2021/01/30 00:57:48;;;;;;;7.00;5.17;;;;;;;8.29;47.46;98061.17;1738363;81;26684;-68
2021/01/30 01:00:23;;;;;;;6.50;5.17;;;;;;;8.28;47.47;98057.69;1747657;81;21366;-69
2021/01/30 01:02:51;;;;;;;6.58;5.22;;;;;;;8.27;47.47;98056.58;1757576;80;22130;-68
2021/01/30 01:05:21;;;;;;;6.15;4.58;;;;;;;8.25;47.45;98058.09;1720413;81;21688;-68
2021/01/30 01:07:48;;;;;;;6.40;5.03;;;;;;;8.24;47.42;98064.89;1720402;81;21143;-68
2021/01/30 01:10:18;;;;;;;5.72;4.87;;;;;;;8.23;47.45;98061.44;1740606;81;21151;-69
2021/01/30 01:12:46;;;;;;;6.47;5.03;;;;;;;8.23;47.44;98073.34;1750096;81;21214;-68
2021/01/30 01:15:14;;;;;;;6.95;4.75;;;;;;;8.22;47.45;98072.20;1747616;81;21156;-69
2021/01/30 01:17:41;;;;;;;6.37;4.50;;;;;;;8.22;47.44;98070.38;1750696;81;21206;-68
2021/01/30 01:20:12;;;;;;;6.03;4.92;;;;;;;8.21;47.43;98067.43;1743208;81;21166;-68
2021/01/30 01:22:41;;;;;;;6.60;4.75;;;;;;;8.20;47.45;98079.52;1750555;81;21187;-69
2021/01/30 01:25:09;;;;;;;7.03;4.95;;;;;;;8.20;47.45;98080.33;1738508;81;21408;-69
2021/01/30 01:27:37;;;;;;;5.80;4.78;;;;;;;8.18;47.43;98073.61;1740892;81;21167;-70
2021/01/30 01:30:08;;;;;;;6.83;5.53;;;;;;;8.18;47.45;98084.19;1750559;81;21167;-70
2021/01/30 01:32:35;;;;;;;6.87;5.22;;;;;;;8.16;47.41;98093.63;1737279;81;21111;-69
2021/01/30 01:35:04;;;;;;;6.17;5.10;;;;;;;8.14;47.41;98079.79;1747800;81;21167;-68
2021/01/30 01:37:31;;;;;;;6.40;5.15;;;;;;;8.14;47.44;98088.23;1749331;81;21439;-68
2021/01/30 01:39:59;;;;;;;6.45;5.05;;;;;;;8.13;47.41;98083.45;1758007;81;21374;-69
2021/01/30 01:42:27;;;;;;;6.53;4.97;;;;;;;8.11;47.48;98086.77;1696195;84;21167;-69
2021/01/30 01:44:54;;;;;;;5.87;5.28;;;;;;;8.10;47.47;98089.13;1747176;81;21557;-69
2021/01/30 01:47:43;;;;;;;6.67;5.12;;;;;;;8.08;47.50;98092.47;1745470;81;21182;-69
2021/01/30 01:50:38;;;;;;;6.33;4.97;;;;;;;8.06;47.50;98090.00;1729829;81;22295;-68
2021/01/30 01:53:16;;;;;;;6.90;5.20;;;;;;;8.03;47.54;98079.80;1757869;81;21615;-69
2021/01/30 01:55:49;;;;;;;5.22;4.12;;;;;;;8.00;47.57;98091.30;1760118;81;21571;-70
2021/01/30 01:58:16;;;;;;;6.17;4.75;;;;;;;7.97;47.63;98087.19;1755439;81;21143;-69
2021/01/30 02:00:48;;;;;;;6.42;5.03;;;;;;;7.95;47.66;98090.53;1743933;81;21131;-69
2021/01/30 02:03:19;;;;;;;5.42;4.47;;;;;;;7.95;47.70;98091.84;1741518;81;21711;-69
2021/01/30 02:05:47;;;;;;;6.58;5.00;;;;;;;7.92;47.69;98088.28;1741276;81;21158;-69
2021/01/30 02:08:17;;;;;;;6.40;5.15;;;;;;;7.91;47.72;98086.63;1749031;81;21155;-70
2021/01/30 02:10:50;;;;;;;6.55;5.08;;;;;;;7.90;47.71;98096.91;1756798;81;21150;-69
2021/01/30 02:13:22;;;;;;;6.22;5.08;;;;;;;7.90;47.75;98094.75;1759121;81;21159;-69
2021/01/30 02:16:02;;;;;;;6.65;5.10;;;;;;;7.87;47.76;98085.38;1756121;81;21250;-68
2021/01/30 02:19:02;;;;;;;8.90;6.05;;;;;;;7.86;47.74;98090.34;1731096;81;21631;-69
2021/01/30 02:22:08;;;;;;;6.65;5.20;;;;;;;7.84;47.73;98094.53;1737823;81;21191;-69
2021/01/30 02:25:08;;;;;;;5.20;4.35;;;;;;;7.81;47.75;98094.09;1740387;81;21583;-71
2021/01/30 02:28:07;;;;;;;7.03;5.15;;;;;;;7.77;47.78;98091.00;1734530;81;21597;-68
2021/01/30 02:31:01;;;;;;;6.08;4.62;;;;;;;7.73;47.82;98084.97;1744007;81;21154;-68
2021/01/30 02:34:02;;;;;;;6.33;4.70;;;;;;;7.71;47.88;98086.48;1728951;81;21624;-67
2021/01/30 02:36:47;;;;;;;6.65;5.10;;;;;;;7.68;47.90;98081.05;1747819;81;21183;-68
2021/01/30 02:39:20;;;;;;;6.28;5.12;;;;;;;7.65;47.96;98070.06;1739209;81;21174;-68
2021/01/30 02:41:56;;;;;;;5.93;4.77;;;;;;;7.63;47.98;98062.32;1757252;81;21591;-68
2021/01/30 02:44:23;;;;;;;5.83;4.47;;;;;;;7.63;48.01;98066.28;1763136;81;21346;-71
2021/01/30 02:46:54;;;;;;;6.20;4.35;;;;;;;7.61;48.02;98067.46;1755657;81;21486;-70
2021/01/30 02:49:29;;;;;;;6.53;4.80;;;;;;;7.60;48.05;98067.16;1729823;81;21639;-71
2021/01/30 02:52:16;;;;;;;6.30;4.42;;;;;;;7.61;48.06;98063.50;1731646;81;21823;-71
2021/01/30 02:54:44;;;;;;;5.70;4.83;;;;;;;7.59;48.04;98063.71;1741341;81;21122;-71
2021/01/30 02:57:17;;;;;;;6.10;5.40;;;;;;;7.58;48.05;98060.74;1750299;81;21345;-69
2021/01/30 02:59:47;;;;;;;6.50;5.20;;;;;;;7.57;48.03;98060.45;1758959;81;21128;-70
2021/01/30 03:02:23;;;;;;;6.85;4.75;;;;;;;7.57;48.07;98060.45;1755207;81;21080;-70
2021/01/30 03:04:52;;;;;;;6.58;5.03;;;;;;;7.56;48.07;98064.08;1746575;80;21664;-68
2021/01/30 03:07:50;;;;;;;6.22;4.67;;;;;;;7.56;48.06;98057.98;1723093;81;21158;-68
2021/01/30 03:10:30;;;;;;;5.97;5.22;;;;;;;7.55;48.04;98058.50;1743009;81;21204;-68
2021/01/30 03:13:16;;;;;;;7.08;5.20;;;;;;;7.54;48.08;98066.09;1740223;81;21183;-70
2021/01/30 03:15:54;;;;;;;6.47;5.40;;;;;;;7.53;48.06;98069.73;1763344;80;21676;-68
2021/01/30 03:18:32;;;;;;;6.30;4.55;;;;;;;7.53;48.04;98062.31;1726158;81;21187;-69
2021/01/30 03:21:04;;;;;;;6.85;5.65;;;;;;;7.51;48.05;98058.53;1747067;81;21138;-68
2021/01/30 03:23:33;;;;;;;6.47;5.30;;;;;;;7.51;48.08;98056.41;1731231;81;21522;-68
2021/01/30 03:26:02;;;;;;;6.65;5.37;;;;;;;7.50;48.04;98060.88;1714149;82;21195;-68
2021/01/30 03:28:29;;;;;;;5.85;5.08;;;;;;;7.51;48.05;98061.17;1731343;81;21179;-69
2021/01/30 03:30:57;;;;;;;6.45;5.20;;;;;;;7.50;48.00;98059.56;1754770;81;21163;-68
2021/01/30 03:33:28;;;;;;;7.95;5.35;;;;;;;7.51;48.03;98060.37;1736459;81;21059;-69
2021/01/30 03:35:57;;;;;;;8.60;5.42;;;;;;;7.50;47.99;98056.11;1759019;80;21385;-68
2021/01/30 03:38:25;;;;;;;6.92;5.37;;;;;;;7.49;47.95;98059.23;1739098;81;21180;-68
2021/01/30 03:40:52;;;;;;;6.65;5.15;;;;;;;7.49;47.97;98052.63;1763306;80;21131;-68
2021/01/30 03:43:19;;;;;;;7.25;5.60;;;;;;;7.48;47.96;98051.00;1759163;80;21169;-68
2021/01/30 03:45:46;;;;;;;6.72;5.42;;;;;;;7.48;47.94;98051.00;1746449;80;21855;-67
2021/01/30 03:48:14;;;;;;;8.28;6.05;;;;;;;7.48;47.92;98053.65;1759598;80;21369;-68
2021/01/30 03:50:42;;;;;;;6.53;5.28;;;;;;;7.47;47.92;98054.64;1759431;80;21167;-68
2021/01/30 03:53:09;;;;;;;6.83;5.28;;;;;;;7.46;47.94;98060.44;1747979;80;21598;-68
2021/01/30 03:55:37;;;;;;;7.17;5.20;;;;;;;7.46;47.92;98056.47;1746449;80;21211;-68
2021/01/30 03:58:05;;;;;;;7.37;5.83;;;;;;;7.46;47.91;98052.52;1707234;84;21167;-68
2021/01/30 04:00:33;;;;;;;6.60;4.90;;;;;;;7.46;47.92;98052.52;1697139;84;21555;-69
2021/01/30 04:03:02;;;;;;;7.85;6.20;;;;;;;7.45;47.91;98056.66;1708686;82;21154;-68
2021/01/30 04:05:29;;;;;;;7.55;5.45;;;;;;;7.44;47.88;98055.03;1709700;82;21172;-70
2021/01/30 04:07:58;;;;;;;6.78;5.47;;;;;;;7.44;47.91;98057.17;1703436;83;21151;-71
2021/01/30 04:10:33;;;;;;;7.20;5.20;;;;;;;7.35;47.88;98041.63;1709140;83;21170;-70
2021/01/30 04:13:07;;;;;;;7.03;5.67;;;;;;;7.42;47.87;98063.66;1702545;83;21248;-69
2021/01/30 04:15:42;;;;;;;7.92;5.67;;;;;;;7.41;47.88;98063.33;1688703;83;21211;-72
2021/01/30 04:18:11;;;;;;;6.28;5.67;;;;;;;7.40;47.91;98067.80;1708730;83;21603;-69
2021/01/30 04:20:39;;;;;;;7.10;5.72;;;;;;;7.40;47.90;98064.35;1707480;83;21192;-69
2021/01/30 04:23:07;;;;;;;7.53;6.15;;;;;;;7.38;47.90;98055.28;1689296;83;21199;-68
2021/01/30 04:25:35;;;;;;;7.28;5.70;;;;;;;7.37;47.92;98056.28;1711122;83;21219;-67
2021/01/30 04:28:04;;;;;;;6.35;5.47;;;;;;;7.36;47.92;98045.41;1699772;83;21182;-68
2021/01/30 04:30:32;;;;;;;9.38;5.97;;;;;;;7.36;47.94;98048.05;1689776;83;21157;-67
2021/01/30 04:33:01;;;;;;;7.30;5.65;;;;;;;7.36;47.94;98041.93;1688831;83;21126;-68
2021/01/30 04:35:32;;;;;;;7.15;5.75;;;;;;;7.36;47.93;98041.93;1688274;83;21141;-68
2021/01/30 04:38:00;;;;;;;6.58;5.58;;;;;;;7.35;47.94;98049.05;1688372;83;21384;-68
2021/01/30 04:40:36;;;;;;;6.92;5.60;;;;;;;7.34;47.93;98056.67;1689063;83;21262;-67
2021/01/30 04:43:18;;;;;;;7.72;5.67;;;;;;;7.34;47.92;98064.59;1696378;83;21201;-66
2021/01/30 04:46:09;;;;;;;7.85;6.72;;;;;;;7.33;47.94;98063.46;1685623;84;21180;-67
2021/01/30 04:49:02;;;;;;;6.45;5.50;;;;;;;7.31;47.96;98064.16;1690326;84;21225;-68
2021/01/30 04:51:36;;;;;;;6.62;5.30;;;;;;;7.31;47.94;98064.16;1695757;83;21376;-68
2021/01/30 04:54:45;;;;;;;6.90;5.37;;;;;;;7.28;47.98;98065.33;1680416;84;21249;-68
2021/01/30 04:57:37;;;;;;;6.90;5.67;;;;;;;7.26;48.04;98061.58;1698966;83;21163;-69
2021/01/30 05:00:34;;;;;;;8.18;6.03;;;;;;;7.24;48.03;98066.23;1690161;84;22112;-67
2021/01/30 05:03:16;;;;;;;7.60;5.50;;;;;;;7.22;48.05;98062.96;1714891;83;21123;-67
2021/01/30 05:05:46;;;;;;;7.87;6.45;;;;;;;7.20;48.07;98060.98;1707180;83;22414;-67
2021/01/30 05:08:36;;;;;;;7.08;5.60;;;;;;;7.20;48.08;98058.84;1694893;83;21209;-68
2021/01/30 05:11:08;;;;;;;8.53;5.85;;;;;;;7.20;48.10;98058.34;1682815;84;21170;-67
2021/01/30 05:13:46;;;;;;;7.65;6.20;;;;;;;7.18;48.08;98053.75;1701474;83;21158;-70
2021/01/30 05:16:19;;;;;;;8.05;5.80;;;;;;;7.18;48.12;98047.66;1680900;84;21188;-68
2021/01/30 05:18:54;;;;;;;8.28;6.45;;;;;;;7.18;48.11;98050.30;1700775;83;21348;-69
2021/01/30 05:21:32;;;;;;;8.83;6.47;;;;;;;7.18;48.11;98054.27;1694853;83;21179;-69
2021/01/30 05:24:00;;;;;;;8.85;7.00;;;;;;;7.18;48.11;98052.43;1696056;83;21139;-68
2021/01/30 05:27:11;;;;;;;7.58;6.05;;;;;;;7.18;48.06;98058.22;1681414;84;21178;-67
2021/01/30 05:30:18;;;;;;;7.65;5.80;;;;;;;7.18;48.08;98066.14;1695795;83;21187;-68
2021/01/30 05:33:28;;;;;;;6.72;5.83;;;;;;;7.15;48.06;98069.98;1695665;83;21237;-68
2021/01/30 05:36:13;;;;;;;7.80;6.15;;;;;;;7.12;48.13;98075.63;1695603;83;21622;-68
2021/01/30 05:39:18;;;;;;;8.48;6.60;;;;;;;7.10;48.13;98076.32;1710088;83;21199;-68
2021/01/30 05:42:20;;;;;;;7.97;6.03;;;;;;;7.10;48.14;98075.00;1718062;82;21139;-68
2021/01/30 05:45:18;;;;;;;7.60;5.72;;;;;;;7.08;48.16;98083.10;1743947;81;21192;-68
2021/01/30 05:47:48;;;;;;;8.23;5.92;;;;;;;7.07;48.17;98078.03;1736392;81;22120;-69
2021/01/30 05:50:23;;;;;;;8.10;5.90;;;;;;;7.07;48.21;98074.07;1737378;81;21154;-68
2021/01/30 05:52:53;;;;;;;7.85;6.30;;;;;;;7.07;48.21;98069.60;1757769;81;21167;-70
2021/01/30 05:55:27;;;;;;;8.45;6.33;;;;;;;7.07;48.14;98068.28;1741805;81;21171;-68
2021/01/30 05:57:58;;;;;;;9.10;6.40;;;;;;;7.09;48.18;98076.83;1756217;81;21576;-68
2021/01/30 06:00:25;;;;;;;8.83;6.53;;;;;;;7.10;48.16;98081.60;1743180;81;21341;-68
2021/01/30 06:03:06;;;;;;;7.22;6.28;;;;;;;7.11;48.12;98083.25;1736366;81;21172;-68
2021/01/30 06:05:44;;;;;;;9.13;7.08;;;;;;;7.13;48.07;98085.20;1757615;81;21167;-67
2021/01/30 06:08:20;;;;;;;9.53;6.60;;;;;;;7.14;48.06;98092.11;1755251;81;21191;-67
2021/01/30 06:11:09;;;;;;;8.48;6.75;;;;;;;7.16;48.01;98088.77;1736572;81;21154;-67
2021/01/30 06:14:01;;;;;;;7.20;6.08;;;;;;;7.18;47.95;98093.36;1741342;81;21212;-68
2021/01/30 06:16:47;;;;;;;8.95;6.65;;;;;;;7.20;47.91;98090.03;1747111;81;21174;-66
2021/01/30 06:19:23;;;;;;;9.70;6.75;;;;;;;7.21;47.88;98093.52;1736904;81;21144;-69
2021/01/30 06:22:14;;;;;;;8.95;6.85;;;;;;;7.21;47.86;98089.55;1736923;81;21374;-70
2021/01/30 06:24:45;;;;;;;10.68;7.42;;;;;;;7.22;47.85;98093.81;1742535;81;21154;-69
2021/01/30 06:27:21;;;;;;;10.88;7.12;;;;;;;7.22;47.83;98093.34;1736546;81;22172;-68
2021/01/30 06:29:55;;;;;;;10.82;7.42;;;;;;;7.23;47.80;98101.55;1766409;81;21143;-70
2021/01/30 06:32:27;;;;;;;7.80;7.00;;;;;;;7.24;47.76;98097.92;1736600;81;21200;-68
2021/01/30 06:35:19;;;;;;;10.80;7.63;;;;;;;7.27;47.75;98104.65;1736674;81;21146;-67
2021/01/30 06:38:04;;;;;;;10.85;7.10;;;;;;;7.28;47.68;98101.83;1736510;81;21391;-66
2021/01/30 06:40:38;;;;;;;10.10;7.17;;;;;;;7.28;47.67;98099.19;1741496;81;21377;-67
2021/01/30 06:43:12;;;;;;;12.13;8.00;;;;;;;7.29;47.66;98092.88;1769507;80;21114;-67
2021/01/30 06:45:42;;;;;;;9.80;7.60;;;;;;;7.29;47.64;98087.59;1741917;80;21183;-69
2021/01/30 06:48:30;;;;;;;9.95;7.80;;;;;;;7.31;47.61;98087.41;1763695;80;21576;-72
2021/01/30 06:50:57;;;;;;;12.05;8.98;;;;;;;7.33;47.58;98089.36;1725079;80;21595;-70
2021/01/30 06:53:32;;;;;;;10.05;7.78;;;;;;;7.33;47.55;98088.05;1747973;80;21592;-71
2021/01/30 06:56:13;;;;;;;10.75;8.48;;;;;;;7.35;47.57;98079.94;1752673;80;21601;-68
2021/01/30 06:58:42;;;;;;;10.88;8.53;;;;;;;7.36;47.55;98081.56;1756713;80;21178;-68
2021/01/30 07:01:13;;;;;;;11.57;8.80;;;;;;;7.37;47.54;98075.28;1746159;80;21150;-67
2021/01/30 07:04:04;;;;;;;11.45;9.13;;;;;;;7.37;47.52;98076.60;1746463;80;21173;-69
2021/01/30 07:07:25;;;;;;;11.90;9.00;;;;;;;7.37;47.49;98070.81;1706510;80;21589;-69
2021/01/30 07:10:42;;;;;;;11.85;9.28;;;;;;;7.40;47.47;98076.23;1765199;80;21131;-68
2021/01/30 07:13:27;;;;;;;14.70;9.55;;;;;;;7.39;47.47;98065.34;1767603;80;21559;-69
2021/01/30 07:16:21;;;;;;;16.00;9.63;;;;;;;7.38;47.47;98066.34;1759830;80;21143;-68
2021/01/30 07:19:28;;;;;;;15.05;10.25;;;;;;;7.38;47.50;98065.02;1767826;80;21664;-69
2021/01/30 07:22:01;;;;;;;14.65;10.72;;;;;;;7.39;47.47;98066.66;1766735;80;21209;-68
2021/01/30 07:24:33;;;;;;;15.98;11.15;;;;;;;7.37;47.51;98070.00;1754149;80;21150;-68
2021/01/30 07:27:15;;;;;;;17.37;11.70;;;;;;;7.39;47.50;98064.83;1763647;80;21187;-67
2021/01/30 07:29:51;;;;;;;17.77;11.68;;;;;;;7.41;47.50;98069.42;1763956;80;22049;-68
2021/01/30 07:32:34;;;;;;;14.40;10.45;;;;;;;7.42;47.48;98071.07;1766572;80;21154;-68
2021/01/30 07:35:33;;;;;;;17.05;12.23;;;;;;;7.44;47.47;98074.85;1776587;80;21398;-68
2021/01/30 07:38:21;;;;;;;16.52;11.00;;;;;;;7.45;47.45;98079.92;1760446;80;21211;-68
2021/01/30 07:40:57;;;;;;;15.10;10.85;;;;;;;7.46;47.46;98082.09;1774833;80;21643;-67
2021/01/30 07:43:38;;;;;;;16.70;11.08;;;;;;;7.48;47.45;98080.07;1680060;84;21175;-67
2021/01/30 07:46:34;;;;;;;17.30;11.20;;;;;;;7.50;47.42;98071.45;1752757;81;21096;-68
2021/01/30 07:49:20;;;;;;;15.18;10.85;;;;;;;7.53;47.38;98071.05;1742950;81;21579;-68
2021/01/30 07:52:23;;;;;;;15.98;11.03;;;;;;;7.54;47.36;98069.25;1739771;81;21135;-68
2021/01/30 07:54:53;;;;;;;16.73;10.70;;;;;;;7.55;47.37;98066.42;1741546;81;21627;-69
2021/01/30 07:58:03;;;;;;;16.97;11.80;;;;;;;7.56;47.34;98071.20;1744113;81;21709;-68
2021/01/30 08:00:48;;;;;;;14.43;10.00;;;;;;;7.57;47.34;98079.42;1751430;81;21174;-68
2021/01/30 08:03:50;;;;;;;14.40;10.58;;;;;;;7.57;47.32;98077.62;1747202;81;21368;-67
2021/01/30 08:06:50;;;;;;;15.00;9.93;;;;;;;7.57;47.34;98076.30;1766088;81;21924;-69
2021/01/30 08:09:30;;;;;;;13.48;10.28;;;;;;;7.59;47.36;98071.64;1748862;81;21175;-67
2021/01/30 08:12:40;;;;;;;16.90;10.50;;;;;;;7.58;47.33;98075.28;1744545;80;21567;-69
2021/01/30 08:15:10;;;;;;;15.83;10.05;;;;;;;7.60;47.34;98081.19;1733466;81;21619;-69
2021/01/30 08:18:01;;;;;;;16.62;10.65;;;;;;;7.61;47.33;98087.28;1690589;84;21370;-69
2021/01/30 08:20:51;;;;;;;13.25;10.25;;;;;;;7.63;47.33;98087.91;1741218;81;21635;-68
2021/01/30 08:23:44;;;;;;;13.95;9.80;;;;;;;7.62;47.32;98076.53;1756766;81;21143;-68
2021/01/30 08:26:37;;;;;;;13.78;9.43;;;;;;;7.63;47.33;98083.47;1758395;81;21143;-68
2021/01/30 08:29:18;;;;;;;13.65;10.15;;;;;;;7.65;47.33;98087.25;1757684;81;21599;-69
2021/01/30 08:31:57;;;;;;;13.05;10.18;;;;;;;7.65;47.32;98074.84;1746491;81;21466;-72
2021/01/30 08:34:30;;;;;;;16.48;10.75;;;;;;;7.67;47.30;98079.43;1749612;81;21256;-70
2021/01/30 08:37:01;;;;;;;13.62;10.45;;;;;;;7.68;47.30;98074.44;1746301;81;21132;-71
2021/01/30 08:39:36;;;;;;;13.95;10.18;;;;;;;7.72;47.26;98072.75;1715996;80;21211;-68
2021/01/30 08:42:16;;;;;;;13.05;9.85;;;;;;;7.74;47.25;98079.47;1739818;81;21163;-70
2021/01/30 08:44:49;;;;;;;13.68;9.63;;;;;;;7.78;47.22;98083.88;1752404;81;21352;-70
2021/01/30 08:47:27;;;;;;;13.45;11.00;;;;;;;7.81;47.17;98080.35;1756113;81;21163;-70
2021/01/30 08:50:32;;;;;;;11.85;9.30;;;;;;;7.88;47.15;98073.81;1806496;78;27153;-71
2021/01/30 08:53:17;;;;;;;11.70;8.75;;;;;;;7.88;47.08;98072.49;1739517;80;21121;-71
2021/01/30 08:55:49;;;;;;;12.45;9.23;;;;;;;7.92;47.03;98067.13;1787331;79;21377;-70
2021/01/30 08:58:38;;;;;;;13.70;8.98;;;;;;;7.94;46.97;98061.14;1765848;79;21166;-72
2021/01/30 09:01:23;;;;;;;11.53;8.75;;;;;;;7.98;46.94;98069.00;1761401;79;21208;-70
2021/01/30 09:04:00;;;;;;;12.75;9.35;;;;;;;8.01;46.87;98069.11;1780380;80;21444;-69
2021/01/30 09:06:51;;;;;;;11.45;8.88;;;;;;;8.04;46.83;98064.26;1754210;80;21176;-71
2021/01/30 09:09:25;;;;;;;13.35;8.95;;;;;;;8.07;46.79;98062.56;1748238;80;21372;-70
2021/01/30 09:11:55;;;;;;;12.10;8.90;;;;;;;8.11;46.70;98062.16;1775815;80;21683;-70
2021/01/30 09:14:31;;;;;;;14.15;9.25;;;;;;;8.13;46.66;98062.78;1773646;80;21183;-69
2021/01/30 09:17:27;;;;;;;11.30;8.30;;;;;;;8.16;46.61;98061.09;1768673;80;21163;-69
2021/01/30 09:20:22;;;;;;;11.12;8.73;;;;;;;8.19;46.56;98062.00;1769301;80;21200;-70
2021/01/30 09:23:04;;;;;;;;;;;;;;;8.20;46.55;98065.78;1769230;80;21372;-70
2021/01/30 09:25:49;;;;;;;11.93;8.45;;;;;;;8.22;46.48;98062.95;1753203;80;21118;-68
2021/01/30 09:28:23;;;;;;;10.98;8.15;;;;;;;8.16;46.58;98063.22;1760007;80;21273;-69
2021/01/30 09:31:04;;;;;;;11.53;8.23;;;;;;;8.19;46.57;98058.03;1773522;79;21197;-68
2021/01/30 09:33:35;;;;;;;11.88;8.43;;;;;;;8.21;46.50;98054.20;1763228;80;21124;-69
2021/01/30 09:36:25;;;;;;;11.45;8.43;;;;;;;8.25;46.50;98053.31;1759667;80;21314;-68
2021/01/30 09:38:58;;;;;;;11.40;8.68;;;;;;;8.27;46.45;98050.78;1804600;79;21592;-68
2021/01/30 09:41:33;;;;;;;12.75;8.10;;;;;;;8.20;46.46;98033.23;1777941;80;21144;-69
2021/01/30 09:44:20;;;;;;;10.82;8.73;;;;;;;8.30;46.41;98041.63;1804411;79;21144;-68
2021/01/30 09:46:52;;;;;;;11.28;8.03;;;;;;;8.32;46.38;98042.76;1780372;80;21131;-68
2021/01/30 09:49:29;;;;;;;11.18;8.30;;;;;;;8.31;46.39;98037.98;1804389;79;22356;-69
2021/01/30 09:51:57;;;;;;;11.48;8.50;;;;;;;8.33;46.37;98035.95;1787410;79;21241;-70
2021/01/30 09:54:26;;;;;;;11.00;8.45;;;;;;;8.33;46.34;98021.41;1803073;79;21192;-70
2021/01/30 09:57:04;;;;;;;11.65;8.90;;;;;;;8.36;46.31;98025.47;1801216;79;21192;-71
2021/01/30 09:59:32;;;;;;;9.83;8.75;;;;;;;8.37;46.30;98018.67;1789856;79;21147;-71
2021/01/30 10:02:18;;;;;;;10.38;8.88;;;;;;;8.38;46.27;98011.54;1797050;79;21173;-68
2021/01/30 10:04:47;;;;;;;10.23;8.23;;;;;;;8.38;46.27;98015.02;1754087;80;21186;-68
2021/01/30 10:07:18;;;;;;;10.05;8.20;;;;;;;8.39;46.28;98019.29;1799118;79;21151;-70
2021/01/30 10:09:47;;;;;;;10.45;7.92;;;;;;;8.40;46.26;98013.48;1782975;80;21194;-69
2021/01/30 10:12:18;;;;;;;11.57;8.35;;;;;;;8.41;46.22;98012.00;1812559;79;21191;-68
2021/01/30 10:14:49;;;;;;;9.95;8.05;;;;;;;8.42;46.23;98011.00;1781558;80;21603;-71
2021/01/30 10:17:24;;;;;;;10.40;7.95;;;;;;;8.04;46.22;97946.58;1796768;79;21206;-69
2021/01/30 10:20:08;;;;;;;10.93;7.65;;;;;;;8.42;46.20;97999.58;1791235;79;21199;-69
2021/01/30 10:22:43;;;;;;;10.40;8.00;;;;;;;8.43;46.22;98000.71;1792008;79;21148;-69
2021/01/30 10:25:25;;;;;;;9.80;7.90;;;;;;;8.47;46.24;97990.55;1759815;80;27626;-69
2021/01/30 10:28:08;;;;;;;9.98;7.95;;;;;;;8.43;46.23;97991.45;1771741;79;21083;-69
2021/01/30 10:30:36;;;;;;;11.05;7.97;;;;;;;8.44;46.23;97986.97;1785625;79;22222;-67
2021/01/30 10:33:09;;;;;;;11.45;8.05;;;;;;;8.44;46.22;97979.03;1782502;79;21178;-70
2021/01/30 10:35:49;;;;;;;11.30;8.00;;;;;;;8.44;46.26;97975.05;1781966;79;21085;-69
2021/01/30 10:38:20;;;;;;;10.32;7.30;;;;;;;8.46;46.23;97969.09;1778173;79;21115;-69
2021/01/30 10:40:51;;;;;;;11.48;8.95;;;;;;;8.44;46.24;97962.66;1784853;79;21194;-69
2021/01/30 10:43:33;;;;;;;10.35;8.35;;;;;;;8.46;46.23;97962.47;1725711;82;21470;-69
2021/01/30 10:46:06;;;;;;;10.72;8.28;;;;;;;8.49;46.22;97959.92;1745175;81;21213;-68
2021/01/30 10:48:37;;;;;;;11.68;8.63;;;;;;;8.49;46.22;97954.12;1747859;81;21598;-69
2021/01/30 10:51:21;;;;;;;9.88;8.08;;;;;;;8.51;46.22;97952.60;1743629;81;21161;-69
2021/01/30 10:53:49;;;;;;;9.98;7.45;;;;;;;8.53;46.25;97942.12;1733386;81;21163;-70
2021/01/30 10:56:26;;;;;;;11.48;9.40;;;;;;;8.54;46.20;97940.31;1686066;83;22144;-70
2021/01/30 10:58:56;;;;;;;10.18;8.40;;;;;;;8.55;46.23;97937.44;1742587;81;21160;-69
2021/01/30 11:01:31;;;;;;;11.12;8.25;;;;;;;8.57;46.21;97938.05;1750377;81;21159;-72
2021/01/30 11:04:02;;;;;;;10.65;8.65;;;;;;;8.58;46.19;97930.95;1714581;82;21195;-69
2021/01/30 11:06:45;;;;;;;10.93;8.23;;;;;;;8.59;46.17;97930.73;1748962;81;21201;-69
2021/01/30 11:09:31;;;;;;;11.70;9.13;;;;;;;8.60;46.15;97931.56;1747123;81;21369;-68
2021/01/30 11:12:12;;;;;;;9.70;8.35;;;;;;;8.61;46.13;97925.23;1748408;81;21929;-71
2021/01/30 11:14:39;;;;;;;10.95;8.40;;;;;;;8.62;46.12;97916.30;1748056;81;21169;-70
2021/01/30 11:17:27;;;;;;;11.65;8.88;;;;;;;8.63;46.13;97909.97;1756995;81;21122;-69
2021/01/30 11:19:57;;;;;;;12.40;8.55;;;;;;;8.65;46.15;97914.07;1757087;81;21093;-69
2021/01/30 11:22:27;;;;;;;10.78;8.30;;;;;;;8.66;46.11;97909.59;1743937;81;21365;-70
2021/01/30 11:25:11;;;;;;;9.43;7.95;;;;;;;8.67;46.07;97904.58;1743737;81;21147;-69
2021/01/30 11:27:46;;;;;;;8.90;7.80;;;;;;;8.68;46.10;97895.64;1724997;81;21563;-70
2021/01/30 11:30:24;;;;;;;10.65;8.23;;;;;;;8.68;46.09;97885.05;1744048;81;21166;-70
2021/01/30 11:33:03;;;;;;;11.22;8.35;;;;;;;8.69;46.11;97876.08;1739347;81;22054;-70
2021/01/30 11:35:34;;;;;;;10.00;8.50;;;;;;;8.70;46.06;97871.09;1730421;81;21268;-70
2021/01/30 11:38:16;;;;;;;11.30;8.68;;;;;;;8.71;46.08;97859.51;1740198;81;21228;-70
2021/01/30 11:40:45;;;;;;;9.18;7.83;;;;;;;8.73;46.07;97852.66;1699224;83;21177;-68
2021/01/30 11:43:13;;;;;;;10.28;8.95;;;;;;;8.73;46.05;97856.15;1725130;81;21173;-69
2021/01/30 11:45:41;;;;;;;12.33;8.43;;;;;;;8.75;46.05;97845.33;1731001;81;21574;-69
2021/01/30 11:48:10;;;;;;;11.43;8.78;;;;;;;8.76;46.05;97846.45;1721308;82;21149;-69
2021/01/30 11:50:38;;;;;;;10.00;7.83;;;;;;;8.77;46.03;97836.19;1742921;81;21436;-70
2021/01/30 11:53:10;;;;;;;10.45;8.30;;;;;;;8.78;46.01;97833.02;1728886;82;21621;-70
2021/01/30 11:58:27;;;;;;;12.18;8.98;;;;;;;8.81;46.00;97822.84;1782772;79;28986;-69
2021/01/30 12:00:55;;;;;;;9.05;8.08;;;;;;;8.74;46.05;97822.02;1756759;80;21183;-69
2021/01/30 12:03:28;;;;;;;10.30;8.53;;;;;;;8.75;46.02;97825.48;1782208;80;21343;-70
2021/01/30 12:05:57;;;;;;;10.35;8.50;;;;;;;8.75;45.98;97815.73;1787945;80;21148;-71
2021/01/30 12:08:25;;;;;;;10.50;8.38;;;;;;;8.75;46.01;97814.40;1765866;80;21167;-71
2021/01/30 12:10:54;;;;;;;7.78;6.92;;;;;;;8.75;46.03;97811.75;1771747;80;21016;-70
2021/01/30 12:13:22;;;;;;;9.23;8.23;;;;;;;8.75;46.01;97813.08;1760703;80;21644;-70
2021/01/30 12:15:50;;;;;;;11.08;8.60;;;;;;;8.74;45.98;97808.78;1774204;80;22108;-71
2021/01/30 12:18:18;;;;;;;9.60;7.78;;;;;;;8.74;46.01;97811.95;1780363;80;21151;-70
2021/01/30 12:20:46;;;;;;;10.18;8.43;;;;;;;8.74;46.02;97810.62;1784447;80;21195;-74
2021/01/30 12:23:14;;;;;;;11.85;9.10;;;;;;;8.73;45.99;97803.20;1766167;80;21167;-69
2021/01/30 12:25:42;;;;;;;10.25;8.65;;;;;;;8.72;46.03;97792.30;1777412;80;21267;-68